Time;durP1;ratioP1;P1;durP2;ratioP2;P2;SDS_P1;SDS_P2;PMS_P1;PMS_P2;Temp;Humidity;BMP_temperature;BMP_pressure;BME280_temperature;BME280_humidity;BME280_pressure;Samples;Min_cycle;Max_cycle;Signal;HPM_P1;HPM_P2
2023/07/17 04:01:38;;;;;;;;;;;20.00;99.90;;;;;;5425479;23;19965;-77
2023/07/17 04:04:05;;;;;;;;;;;20.00;99.90;;;;;;5011237;28;19914;-77
2023/07/17 04:06:30;;;;;;;;;;;20.00;99.90;;;;;;4994957;28;20432;-77
2023/07/17 04:08:55;;;;;;;;;;;20.10;99.90;;;;;;4996305;28;19918;-78
2023/07/17 04:11:22;;;;;;;;;;;20.10;99.90;;;;;;5012511;28;19913;-77
2023/07/17 04:13:47;;;;;;;;;;;20.00;99.90;;;;;;4998337;28;19913;-77
2023/07/17 04:16:13;;;;;;;;;;;20.10;99.90;;;;;;4994505;28;19940;-76
2023/07/17 04:18:39;;;;;;;;;;;20.10;99.90;;;;;;4993180;28;19914;-76
2023/07/17 04:21:04;;;;;;;;;;;20.20;99.90;;;;;;4992437;28;20373;-76
2023/07/17 04:23:30;;;;;;;;;;;20.20;99.90;;;;;;4996599;28;20111;-76
2023/07/17 04:25:55;;;;;;;;;;;20.10;99.90;;;;;;4995001;28;19972;-76
2023/07/17 04:28:21;;;;;;;;;;;20.00;99.90;;;;;;4994070;28;19914;-76
2023/07/17 04:30:46;;;;;;;;;;;20.00;99.90;;;;;;4991227;28;20133;-76
2023/07/17 04:33:12;;;;;;;;;;;19.90;99.90;;;;;;4979257;28;20303;-72
2023/07/17 04:35:38;;;;;;;;;;;19.90;99.90;;;;;;4981725;28;19910;-72
2023/07/17 04:38:03;;;;;;;;;;;19.90;99.90;;;;;;4994046;28;19975;-67
2023/07/17 04:40:29;;;;;;;;;;;19.90;99.90;;;;;;4986084;28;19989;-67
2023/07/17 04:42:54;;;;;;;;;;;19.90;99.90;;;;;;4994678;28;19918;-68
2023/07/17 04:45:20;;;;;;;;;;;19.90;99.90;;;;;;4986537;28;19918;-68
2023/07/17 04:47:45;;;;;;;;;;;19.90;99.90;;;;;;4995517;28;19910;-68
2023/07/17 04:50:11;;;;;;;;;;;19.90;99.90;;;;;;4997157;28;20617;-68
2023/07/17 04:52:36;;;;;;;;;;;19.90;99.90;;;;;;4992227;28;20279;-67
2023/07/17 04:55:02;;;;;;;;;;;20.00;99.90;;;;;;4992524;28;19918;-67
2023/07/17 04:57:27;;;;;;;;;;;20.00;99.90;;;;;;4994536;28;19910;-67
2023/07/17 04:59:53;;;;;;;;;;;20.10;99.90;;;;;;4984281;28;19910;-68
2023/07/17 05:02:19;;;;;;;;;;;20.30;99.90;;;;;;4985685;28;19918;-69
2023/07/17 05:04:44;;;;;;;;;;;20.30;99.90;;;;;;4993996;28;19910;-68
2023/07/17 05:07:10;;;;;;;;;;;20.30;99.90;;;;;;4992412;28;19997;-67
2023/07/17 05:09:36;;;;;;;;;;;20.40;99.90;;;;;;4986221;28;20433;-69
2023/07/17 05:12:01;;;;;;;;;;;20.20;99.90;;;;;;4993887;28;19964;-68
2023/07/17 05:14:27;;;;;;;;;;;20.20;99.90;;;;;;4993906;28;19949;-68
2023/07/17 05:16:52;;;;;;;;;;;20.30;99.90;;;;;;4994598;28;19957;-68
2023/07/17 05:19:18;;;;;;;;;;;20.40;99.90;;;;;;4997884;28;19924;-68
2023/07/17 05:21:43;;;;;;;;;;;20.40;99.90;;;;;;4999018;28;19918;-68
2023/07/17 05:24:08;;;;;;;;;;;20.40;99.90;;;;;;4995518;28;19978;-68
2023/07/17 05:26:34;;;;;;;;;;;20.50;99.90;;;;;;4988378;28;19921;-68
2023/07/17 05:28:59;;;;;;;;;;;20.60;99.90;;;;;;4974865;28;19925;-67
2023/07/17 05:31:25;;;;;;;;;;;20.40;99.90;;;;;;4983972;28;19914;-68
2023/07/17 05:33:50;;;;;;;;;;;20.40;99.90;;;;;;4995145;28;19972;-67
2023/07/17 05:36:16;;;;;;;;;;;20.40;99.90;;;;;;4996844;28;20287;-68
2023/07/17 05:38:41;;;;;;;;;;;20.50;99.90;;;;;;4997370;28;19924;-67
2023/07/17 05:41:07;;;;;;;;;;;20.30;99.90;;;;;;4996648;28;19913;-68
2023/07/17 05:43:32;;;;;;;;;;;20.10;99.90;;;;;;4996930;28;19918;-68
2023/07/17 05:45:58;;;;;;;;;;;20.00;99.90;;;;;;4997891;28;20263;-68
2023/07/17 05:48:23;;;;;;;;;;;20.20;99.90;;;;;;4992326;28;19925;-68
2023/07/17 05:50:49;;;;;;;;;;;20.20;99.90;;;;;;4977690;28;19984;-68
2023/07/17 05:53:14;;;;;;;;;;;20.20;99.90;;;;;;4989791;28;19920;-71
2023/07/17 05:55:41;;;;;;;;;;;20.30;99.90;;;;;;4994846;28;19925;-71
2023/07/17 05:58:07;;;;;;;;;;;20.40;99.90;;;;;;4977133;28;19910;-71
2023/07/17 06:00:33;;;;;;;;;;;20.50;99.90;;;;;;4978509;28;19922;-71
2023/07/17 06:02:58;;;;;;;;;;;20.50;99.90;;;;;;4980200;28;19910;-72
2023/07/17 06:05:24;;;;;;;;;;;20.50;99.90;;;;;;4985153;28;19945;-72
2023/07/17 06:07:49;;;;;;;;;;;20.60;99.90;;;;;;4996277;28;19917;-72
2023/07/17 06:10:15;;;;;;;;;;;20.70;99.90;;;;;;4997449;28;19940;-72
2023/07/17 06:12:42;;;;;;;;;;;20.80;99.90;;;;;;4998195;28;19910;-71
2023/07/17 06:15:08;;;;;;;;;;;21.00;99.90;;;;;;4995691;28;19910;-71
2023/07/17 06:17:33;;;;;;;;;;;21.00;99.90;;;;;;4998027;28;19913;-71
2023/07/17 06:19:59;;;;;;;;;;;20.90;99.90;;;;;;4997147;28;19935;-72
2023/07/17 06:22:24;;;;;;;;;;;20.90;99.90;;;;;;4995844;28;19910;-72
2023/07/17 06:24:50;;;;;;;;;;;20.90;99.90;;;;;;4997471;28;19993;-71
2023/07/17 06:27:15;;;;;;;;;;;20.90;99.90;;;;;;4998195;28;19910;-72
2023/07/17 06:29:41;;;;;;;;;;;21.00;99.90;;;;;;4997442;28;19914;-70
2023/07/17 06:32:07;;;;;;;;;;;21.20;99.90;;;;;;4997851;28;19916;-70
2023/07/17 06:34:33;;;;;;;;;;;21.30;99.90;;;;;;4998511;28;19910;-69
2023/07/17 06:36:58;;;;;;;;;;;21.40;99.90;;;;;;4976890;28;20422;-73
2023/07/17 06:39:24;;;;;;;;;;;21.50;99.90;;;;;;4976891;28;19910;-72
2023/07/17 06:41:49;;;;;;;;;;;21.50;99.90;;;;;;4975297;28;19917;-75
2023/07/17 06:44:14;;;;;;;;;;;21.50;99.90;;;;;;4976157;28;19964;-72
2023/07/17 06:46:41;;;;;;;;;;;21.40;99.90;;;;;;4975008;28;19910;-73
2023/07/17 06:49:06;;;;;;;;;;;21.30;99.90;;;;;;4975264;28;20279;-71
2023/07/17 06:51:32;;;;;;;;;;;21.40;99.90;;;;;;4976616;28;19920;-73
2023/07/17 06:53:57;;;;;;;;;;;21.40;99.90;;;;;;4977775;28;20334;-71
2023/07/17 06:56:23;;;;;;;;;;;21.40;99.90;;;;;;4977314;28;19910;-75
2023/07/17 06:58:48;;;;;;;;;;;21.50;99.90;;;;;;4976178;28;19933;-74
2023/07/17 07:01:16;;;;;;;;;;;21.50;99.90;;;;;;4976258;28;19957;-76
2023/07/17 07:03:43;;;;;;;;;;;21.60;99.90;;;;;;4976501;28;19914;-71
2023/07/17 07:06:09;;;;;;;;;;;21.70;99.90;;;;;;4985993;28;19916;-71
2023/07/17 07:08:34;;;;;;;;;;;21.90;99.90;;;;;;4994426;28;19914;-72
2023/07/17 07:11:00;;;;;;;;;;;21.90;99.90;;;;;;4996825;28;19910;-77
2023/07/17 07:13:26;;;;;;;;;;;21.90;99.90;;;;;;4996877;28;19910;-77
2023/07/17 07:15:51;;;;;;;;;;;22.10;99.90;;;;;;4996131;28;19920;-72
2023/07/17 07:18:17;;;;;;;;;;;22.20;99.90;;;;;;4997194;28;19967;-72
2023/07/17 07:20:44;;;;;;;;;;;22.20;99.90;;;;;;4994722;28;20004;-73
2023/07/17 07:23:09;;;;;;;;;;;22.30;99.90;;;;;;4994448;28;19929;-76
2023/07/17 07:25:34;;;;;;;;;;;22.40;99.90;;;;;;4995985;28;19913;-76
2023/07/17 07:28:00;;;;;;;;;;;22.50;99.90;;;;;;4997080;28;19964;-74
2023/07/17 07:30:26;;;;;;;;;;;22.70;99.90;;;;;;4996450;28;19956;-78
2023/07/17 07:32:52;;;;;;;;;;;22.80;99.90;;;;;;4996238;28;19960;-76
2023/07/17 07:35:18;;;;;;;;;;;22.90;99.90;;;;;;5008408;28;19910;-78
2023/07/17 07:37:43;;;;;;;;;;;23.00;99.90;;;;;;5002517;28;19909;-71
2023/07/17 07:40:11;;;;;;;;;;;23.10;99.90;;;;;;4994358;28;20366;-74
2023/07/17 07:42:37;;;;;;;;;;;23.20;99.90;;;;;;4996193;28;19917;-75
2023/07/17 07:45:03;;;;;;;;;;;23.20;99.90;;;;;;4995531;28;19957;-74
2023/07/17 07:47:30;;;;;;;;;;;23.30;99.90;;;;;;4995818;28;19910;-75
2023/07/17 07:49:55;;;;;;;;;;;23.40;99.90;;;;;;4994887;28;19921;-76
2023/07/17 07:52:21;;;;;;;;;;;23.40;99.90;;;;;;4996319;28;19914;-75
2023/07/17 07:54:47;;;;;;;;;;;23.50;99.80;;;;;;4996539;28;19914;-76
2023/07/17 07:57:12;;;;;;;;;;;23.60;99.90;;;;;;4995596;28;19914;-74
2023/07/17 07:59:40;;;;;;;;;;;23.70;99.50;;;;;;4995639;28;20021;-76
2023/07/17 08:02:06;;;;;;;;;;;23.90;98.70;;;;;;4998518;28;19969;-75
2023/07/17 08:04:32;;;;;;;;;;;24.00;98.60;;;;;;4995626;28;19982;-73
2023/07/17 08:07:01;;;;;;;;;;;24.20;98.30;;;;;;4996091;28;19941;-68
2023/07/17 08:09:29;;;;;;;;;;;24.40;97.90;;;;;;4995171;28;19940;-65
2023/07/17 08:11:58;;;;;;;;;;;24.50;97.30;;;;;;4994604;28;19917;-66
2023/07/17 08:14:26;;;;;;;;;;;24.70;96.90;;;;;;4993358;28;20001;-66
2023/07/17 08:16:54;;;;;;;;;;;25.30;96.50;;;;;;4994536;28;19914;-66
2023/07/17 08:19:19;;;;;;;;;;;26.60;95.50;;;;;;4993554;28;19910;-66
2023/07/17 08:21:47;;;;;;;;;;;28.10;93.00;;;;;;4992978;28;20454;-66
2023/07/17 08:24:21;;;;;;;;;;;28.90;90.90;;;;;;4994786;28;20286;-65
2023/07/17 08:26:46;;;;;;;;;;;29.60;88.90;;;;;;4993228;28;20287;-65
2023/07/17 08:29:12;;;;;;;;;;;30.40;86.00;;;;;;4994201;28;19924;-65
2023/07/17 08:31:37;;;;;;;;;;;30.40;84.70;;;;;;4994703;28;19984;-65
2023/07/17 08:34:03;;;;;;;;;;;30.50;84.40;;;;;;4995345;28;19910;-65
2023/07/17 08:36:32;;;;;;;;;;;30.10;83.30;;;;;;4995799;28;19910;-65
2023/07/17 08:38:57;;;;;;;;;;;30.10;81.80;;;;;;4996729;28;19956;-66
2023/07/17 08:41:23;;;;;;;;;;;30.00;81.80;;;;;;4993675;28;19917;-65
2023/07/17 08:43:51;;;;;;;;;;;29.80;81.50;;;;;;4994024;28;19968;-65
2023/07/17 08:46:17;;;;;;;;;;;30.20;80.60;;;;;;4996457;28;19918;-66
2023/07/17 08:48:47;;;;;;;;;;;31.60;78.20;;;;;;4995851;28;19933;-66
2023/07/17 08:51:13;;;;;;;;;;;33.70;75.10;;;;;;4996730;28;19917;-65
2023/07/17 08:53:42;;;;;;;;;;;34.90;71.90;;;;;;4995119;28;19917;-65
2023/07/17 08:56:08;;;;;;;;;;;35.10;68.60;;;;;;4996062;28;20339;-66
2023/07/17 08:58:37;;;;;;;;;;;34.70;68.90;;;;;;4994908;28;19941;-66
2023/07/17 09:01:03;;;;;;;;;;;35.50;67.80;;;;;;4994160;28;19922;-63
2023/07/17 09:03:32;;;;;;;;;;;35.70;66.40;;;;;;4994315;28;20004;-64
2023/07/17 09:05:58;;;;;;;;;;;35.60;65.30;;;;;;4994004;28;19968;-63
2023/07/17 09:08:24;;;;;;;;;;;35.60;65.60;;;;;;4994275;28;19913;-63
2023/07/17 09:11:02;;;;;;;;;;;36.90;63.70;;;;;;4994462;28;19910;-64
2023/07/17 09:13:51;;;;;;;;;;;37.90;61.20;;;;;;4997953;28;19914;-64
2023/07/17 09:16:20;;;;;;;;;;;38.20;60.30;;;;;;4998264;28;20256;-63
2023/07/17 09:18:46;;;;;;;;;;;37.00;60.30;;;;;;4996511;28;19934;-63
2023/07/17 09:21:13;;;;;;;;;;;37.60;60.00;;;;;;4997968;28;19917;-63
2023/07/17 09:23:39;;;;;;;;;;;37.80;59.20;;;;;;4996269;28;19910;-63
2023/07/17 09:26:08;;;;;;;;;;;37.90;58.90;;;;;;4997713;28;19910;-65
2023/07/17 09:28:37;;;;;;;;;;;38.40;58.40;;;;;;4997799;28;19921;-64
2023/07/17 09:31:03;;;;;;;;;;;38.60;58.00;;;;;;4996972;28;19957;-64
2023/07/17 09:33:31;;;;;;;;;;;38.50;57.40;;;;;;4998877;28;19909;-64
2023/07/17 09:35:57;;;;;;;;;;;38.90;57.40;;;;;;4998193;28;19914;-64
2023/07/17 09:38:32;;;;;;;;;;;39.90;56.60;;;;;;4997108;28;19933;-64
2023/07/17 09:41:16;;;;;;;;;;;39.80;55.10;;;;;;4996786;28;20001;-65
2023/07/17 09:43:41;;;;;;;;;;;39.40;55.10;;;;;;4997793;28;19910;-63
2023/07/17 09:46:07;;;;;;;;;;;39.80;53.60;;;;;;4997646;28;19910;-64
2023/07/17 09:48:36;;;;;;;;;;;39.50;53.60;;;;;;4996430;28;19917;-64
2023/07/17 09:51:04;;;;;;;;;;;38.00;54.40;;;;;;4997234;28;19910;-64
2023/07/17 09:53:34;;;;;;;;;;;37.60;55.10;;;;;;4997946;28;19917;-65
2023/07/17 09:56:00;;;;;;;;;;;38.00;54.80;;;;;;4999158;28;19910;-62
2023/07/17 09:58:29;;;;;;;;;;;38.40;54.20;;;;;;4997749;28;19914;-62
2023/07/17 10:00:55;;;;;;;;;;;37.80;54.50;;;;;;4996370;28;19921;-63
2023/07/17 10:03:25;;;;;;;;;;;38.40;54.20;;;;;;4996913;28;20000;-63
2023/07/17 10:05:54;;;;;;;;;;;39.70;53.10;;;;;;4995605;28;19910;-63
2023/07/17 10:08:23;;;;;;;;;;;39.50;52.80;;;;;;4997238;28;19965;-63
2023/07/17 10:10:55;;;;;;;;;;;37.20;54.20;;;;;;4996630;28;19913;-64
2023/07/17 10:13:32;;;;;;;;;;;35.80;55.70;;;;;;4996823;28;19910;-63
2023/07/17 10:15:58;;;;;;;;;;;35.40;56.50;;;;;;4995059;28;19910;-63
2023/07/17 10:18:24;;;;;;;;;;;35.80;56.40;;;;;;4996936;28;20020;-63
2023/07/17 10:20:51;;;;;;;;;;;36.60;54.90;;;;;;4994446;28;19990;-63
2023/07/17 10:23:26;;;;;;;;;;;37.30;54.40;;;;;;4995810;28;20339;-63
2023/07/17 10:25:53;;;;;;;;;;;38.10;54.00;;;;;;4996136;28;19921;-64
2023/07/17 10:28:29;;;;;;;;;;;38.90;53.00;;;;;;4995017;28;20078;-64
2023/07/17 10:30:54;;;;;;;;;;;39.10;53.10;;;;;;4996844;28;20342;-64
2023/07/17 10:33:22;;;;;;;;;;;39.30;52.40;;;;;;4995896;28;19910;-64
2023/07/17 10:35:52;;;;;;;;;;;39.50;52.20;;;;;;4995385;28;19910;-64
2023/07/17 10:38:22;;;;;;;;;;;39.70;51.70;;;;;;4996253;28;20357;-64
2023/07/17 10:40:47;;;;;;;;;;;39.40;52.00;;;;;;4996025;28;19952;-64
2023/07/17 10:43:15;;;;;;;;;;;38.00;52.40;;;;;;4994116;28;19925;-64
2023/07/17 10:45:40;;;;;;;;;;;37.10;53.00;;;;;;4995295;28;19933;-64
2023/07/17 10:48:06;;;;;;;;;;;38.00;52.50;;;;;;4995663;28;20350;-66
2023/07/17 10:50:32;;;;;;;;;;;38.50;51.80;;;;;;4995300;28;20302;-65
2023/07/17 10:53:09;;;;;;;;;;;38.90;51.70;;;;;;4995449;28;19921;-64
2023/07/17 10:55:34;;;;;;;;;;;39.20;51.30;;;;;;4996026;28;20375;-64
2023/07/17 10:58:00;;;;;;;;;;;39.00;51.20;;;;;;4978537;28;19917;-63
2023/07/17 11:00:26;;;;;;;;;;;39.20;50.70;;;;;;4975573;28;19949;-63
2023/07/17 11:02:51;;;;;;;;;;;39.20;50.70;;;;;;4975996;28;20370;-64
2023/07/17 11:05:17;;;;;;;;;;;38.70;51.50;;;;;;4979114;28;19949;-63
2023/07/17 11:07:42;;;;;;;;;;;38.80;51.00;;;;;;4994588;28;19914;-63
2023/07/17 11:10:12;;;;;;;;;;;38.60;51.40;;;;;;4992952;28;19914;-63
2023/07/17 11:12:41;;;;;;;;;;;37.30;51.60;;;;;;4991118;28;19918;-63
2023/07/17 11:15:12;;;;;;;;;;;36.80;53.10;;;;;;4976096;28;19954;-64
2023/07/17 11:17:37;;;;;;;;;;;36.90;52.70;;;;;;4975579;28;19910;-63
2023/07/17 11:20:03;;;;;;;;;;;35.80;52.60;;;;;;4975425;28;19910;-64
2023/07/17 11:22:31;;;;;;;;;;;34.30;53.80;;;;;;4974949;28;19917;-64
2023/07/17 11:24:57;;;;;;;;;;;33.20;54.80;;;;;;4975578;28;19946;-66
2023/07/17 11:27:22;;;;;;;;;;;32.20;56.10;;;;;;4988365;28;19969;-64
2023/07/17 11:29:50;;;;;;;;;;;31.60;57.10;;;;;;4991595;28;19914;-65
2023/07/17 11:32:22;;;;;;;;;;;31.10;57.90;;;;;;4991591;28;19950;-65
2023/07/17 11:34:54;;;;;;;;;;;30.70;58.50;;;;;;4975407;28;19911;-64
2023/07/17 11:37:38;;;;;;;;;;;30.40;59.00;;;;;;4974652;28;20260;-64
2023/07/17 11:40:08;;;;;;;;;;;30.20;59.30;;;;;;4991728;28;19914;-64
2023/07/17 11:42:52;;;;;;;;;;;29.90;59.80;;;;;;4976873;28;20020;-64
2023/07/17 11:45:36;;;;;;;;;;;29.80;60.00;;;;;;4977122;28;20371;-64
2023/07/17 11:48:02;;;;;;;;;;;29.60;60.80;;;;;;4976278;28;19910;-63
2023/07/17 11:50:27;;;;;;;;;;;29.70;60.50;;;;;;4991078;28;20282;-64
2023/07/17 11:53:03;;;;;;;;;;;29.40;61.10;;;;;;4975510;28;19932;-65
2023/07/17 11:55:35;;;;;;;;;;;29.20;61.30;;;;;;4975806;28;19910;-64
2023/07/17 11:58:00;;;;;;;;;;;29.20;61.20;;;;;;4975059;28;19983;-64
2023/07/17 12:00:26;;;;;;;;;;;28.80;62.30;;;;;;4974539;28;19927;-66
2023/07/17 12:02:51;;;;;;;;;;;28.60;62.30;;;;;;4975376;28;19916;-64
2023/07/17 12:05:17;;;;;;;;;;;28.40;63.00;;;;;;4992842;28;19910;-64
2023/07/17 12:07:42;;;;;;;;;;;28.40;63.00;;;;;;4994073;28;20307;-64
2023/07/17 12:10:08;;;;;;;;;;;28.40;63.10;;;;;;4994139;28;19920;-64
2023/07/17 12:12:35;;;;;;;;;;;28.50;63.00;;;;;;4994451;28;19918;-64
2023/07/17 12:15:00;;;;;;;;;;;28.80;63.30;;;;;;4991947;28;20355;-63
2023/07/17 12:17:26;;;;;;;;;;;28.70;62.50;;;;;;4991543;28;19913;-63
2023/07/17 12:19:51;;;;;;;;;;;28.60;62.50;;;;;;4995481;28;19913;-66
2023/07/17 12:22:17;;;;;;;;;;;28.60;62.70;;;;;;4995603;28;19910;-62
2023/07/17 12:24:43;;;;;;;;;;;28.60;63.00;;;;;;4993926;28;20425;-63
2023/07/17 12:27:08;;;;;;;;;;;28.50;63.30;;;;;;4996671;28;20373;-64
2023/07/17 12:29:34;;;;;;;;;;;28.50;64.10;;;;;;4988102;28;19921;-63
2023/07/17 12:32:00;;;;;;;;;;;28.60;63.50;;;;;;4988091;28;19957;-63
2023/07/17 12:34:25;;;;;;;;;;;28.70;63.50;;;;;;4987630;28;20306;-64
2023/07/17 12:36:51;;;;;;;;;;;28.80;62.40;;;;;;4989830;28;19918;-64
2023/07/17 12:39:16;;;;;;;;;;;28.90;62.90;;;;;;4988436;28;19910;-63
2023/07/17 12:41:42;;;;;;;;;;;28.80;63.00;;;;;;4978518;28;19914;-62
2023/07/17 12:44:09;;;;;;;;;;;28.70;62.10;;;;;;4990291;28;20429;-63
2023/07/17 12:46:34;;;;;;;;;;;28.60;62.50;;;;;;4984354;28;19910;-62
2023/07/17 12:49:00;;;;;;;;;;;28.50;62.20;;;;;;4987779;28;19915;-63
2023/07/17 12:51:25;;;;;;;;;;;28.40;62.00;;;;;;4990492;28;20329;-63
2023/07/17 12:53:51;;;;;;;;;;;28.30;62.40;;;;;;4981551;28;19911;-65
2023/07/17 12:56:16;;;;;;;;;;;28.30;61.90;;;;;;4997340;28;19920;-65
2023/07/17 12:58:42;;;;;;;;;;;28.30;62.70;;;;;;4998322;28;19941;-64
2023/07/17 13:01:07;;;;;;;;;;;28.40;62.50;;;;;;4997362;28;20267;-64
2023/07/17 13:03:33;;;;;;;;;;;28.40;62.50;;;;;;4998505;28;19957;-64
2023/07/17 13:05:58;;;;;;;;;;;28.40;62.40;;;;;;4995809;28;19915;-71
2023/07/17 13:08:24;;;;;;;;;;;28.50;62.30;;;;;;4996890;28;20367;-72
2023/07/17 13:10:49;;;;;;;;;;;28.60;62.50;;;;;;4992218;28;20013;-70
2023/07/17 13:13:15;;;;;;;;;;;28.70;62.30;;;;;;4986061;28;19929;-72
2023/07/17 13:15:40;;;;;;;;;;;28.70;61.00;;;;;;4997143;28;19948;-72
2023/07/17 13:18:06;;;;;;;;;;;28.50;61.60;;;;;;4996861;28;19910;-73
2023/07/17 13:20:31;;;;;;;;;;;28.50;61.40;;;;;;4997859;28;19948;-71
2023/07/17 13:22:57;;;;;;;;;;;28.60;61.50;;;;;;4986107;28;20144;-71
2023/07/17 13:25:22;;;;;;;;;;;28.70;61.20;;;;;;4977399;28;20000;-73
2023/07/17 13:27:48;;;;;;;;;;;28.80;61.10;;;;;;4986441;28;19910;-71
2023/07/17 13:30:13;;;;;;;;;;;28.80;61.00;;;;;;4978006;28;19918;-74
2023/07/17 13:32:39;;;;;;;;;;;28.80;61.60;;;;;;4992879;28;20368;-73
2023/07/17 13:35:04;;;;;;;;;;;28.90;61.20;;;;;;5004318;28;19946;-74
2023/07/17 13:37:30;;;;;;;;;;;28.90;61.10;;;;;;5004048;28;19917;-73
2023/07/17 13:39:56;;;;;;;;;;;28.90;60.60;;;;;;5002327;28;20325;-74
2023/07/17 13:42:22;;;;;;;;;;;28.90;60.20;;;;;;5002375;28;20325;-75
2023/07/17 13:44:47;;;;;;;;;;;29.00;60.30;;;;;;4998731;28;19909;-72
2023/07/17 13:47:13;;;;;;;;;;;28.90;60.00;;;;;;5000572;28;19917;-74
2023/07/17 13:49:38;;;;;;;;;;;28.90;60.10;;;;;;5002806;28;19913;-74
2023/07/17 13:52:04;;;;;;;;;;;28.80;60.40;;;;;;5001113;28;20327;-75
2023/07/17 13:54:30;;;;;;;;;;;29.00;59.50;;;;;;5003779;28;19910;-74
2023/07/17 13:56:55;;;;;;;;;;;28.90;59.30;;;;;;5004186;28;19956;-73
2023/07/17 13:59:21;;;;;;;;;;;28.70;59.40;;;;;;5003685;28;20259;-73
2023/07/17 14:01:46;;;;;;;;;;;28.80;59.60;;;;;;5000345;28;19917;-72
2023/07/17 14:04:12;;;;;;;;;;;28.90;59.60;;;;;;4998565;28;20379;-73
2023/07/17 14:06:37;;;;;;;;;;;28.80;60.10;;;;;;4995663;28;19916;-71
2023/07/17 14:09:03;;;;;;;;;;;28.70;60.00;;;;;;4996894;28;20227;-72
2023/07/17 14:11:29;;;;;;;;;;;28.80;59.90;;;;;;4996990;28;19910;-72
2023/07/17 14:13:57;;;;;;;;;;;29.00;59.70;;;;;;4997336;28;19952;-72
2023/07/17 14:16:23;;;;;;;;;;;28.90;59.60;;;;;;4997168;28;19914;-72
2023/07/17 14:18:48;;;;;;;;;;;29.00;59.50;;;;;;4996986;28;19972;-72
2023/07/17 14:21:14;;;;;;;;;;;28.90;59.00;;;;;;4998147;28;19910;-72
2023/07/17 14:23:39;;;;;;;;;;;28.90;59.40;;;;;;4997788;28;19917;-72
2023/07/17 14:26:04;;;;;;;;;;;28.90;59.30;;;;;;4996386;28;20258;-71
2023/07/17 14:28:30;;;;;;;;;;;28.90;59.10;;;;;;4996805;28;19980;-72
2023/07/17 14:30:56;;;;;;;;;;;29.00;58.50;;;;;;4997450;28;19917;-71
2023/07/17 14:33:21;;;;;;;;;;;28.90;58.50;;;;;;4995790;28;19916;-70
2023/07/17 14:35:47;;;;;;;;;;;28.90;58.10;;;;;;4997646;28;20427;-72
2023/07/17 14:38:12;;;;;;;;;;;28.80;58.70;;;;;;4996921;28;20016;-70
2023/07/17 14:40:38;;;;;;;;;;;28.80;58.50;;;;;;4997474;28;19992;-70
2023/07/17 14:43:03;;;;;;;;;;;28.80;58.50;;;;;;4997233;28;20051;-74
2023/07/17 14:45:29;;;;;;;;;;;28.80;58.30;;;;;;4998219;28;19910;-75
2023/07/17 14:47:54;;;;;;;;;;;29.00;58.30;;;;;;4998651;28;19960;-73
2023/07/17 14:50:20;;;;;;;;;;;29.00;58.50;;;;;;4998936;28;20012;-75
2023/07/17 14:52:46;;;;;;;;;;;28.90;58.30;;;;;;4994443;28;19917;-72
2023/07/17 14:55:12;;;;;;;;;;;28.90;58.20;;;;;;4995768;28;20351;-75
2023/07/17 14:57:37;;;;;;;;;;;29.00;57.90;;;;;;4995901;28;19910;-71
2023/07/17 15:00:03;;;;;;;;;;;29.00;57.20;;;;;;5005053;28;19910;-75
2023/07/17 15:02:29;;;;;;;;;;;28.80;57.60;;;;;;5000975;28;19918;-73
2023/07/17 15:04:54;;;;;;;;;;;28.80;57.90;;;;;;4997274;28;19917;-72
2023/07/17 15:07:20;;;;;;;;;;;28.80;57.70;;;;;;4978927;28;20383;-71
2023/07/17 15:09:45;;;;;;;;;;;28.80;58.00;;;;;;4974460;28;19920;-72
2023/07/17 15:12:11;;;;;;;;;;;28.80;58.80;;;;;;4981300;28;20278;-71
2023/07/17 15:14:37;;;;;;;;;;;28.70;58.60;;;;;;4981170;28;19910;-71
2023/07/17 15:17:02;;;;;;;;;;;28.80;58.90;;;;;;4977338;28;19922;-72
2023/07/17 15:19:28;;;;;;;;;;;28.80;57.90;;;;;;4977305;28;19910;-74
2023/07/17 15:21:53;;;;;;;;;;;28.80;57.70;;;;;;4976381;28;20260;-74
2023/07/17 15:24:19;;;;;;;;;;;28.80;57.80;;;;;;4977450;28;19910;-74
2023/07/17 15:26:44;;;;;;;;;;;28.80;58.20;;;;;;4998048;28;20345;-75
2023/07/17 15:29:10;;;;;;;;;;;28.80;58.40;;;;;;4996059;28;19914;-75
2023/07/17 15:31:35;;;;;;;;;;;28.80;58.20;;;;;;4996846;28;19956;-74
2023/07/17 15:34:00;;;;;;;;;;;28.70;57.40;;;;;;4997627;28;20255;-74
2023/07/17 15:36:27;;;;;;;;;;;28.60;57.30;;;;;;5000139;28;20009;-75
2023/07/17 15:38:52;;;;;;;;;;;28.60;57.10;;;;;;4999810;28;19936;-75
2023/07/17 15:41:18;;;;;;;;;;;28.50;57.20;;;;;;4998587;28;20375;-72
2023/07/17 15:43:43;;;;;;;;;;;28.60;56.70;;;;;;4997416;28;19920;-77
2023/07/17 15:46:09;;;;;;;;;;;28.60;57.00;;;;;;4997668;28;19910;-76
2023/07/17 15:48:34;;;;;;;;;;;28.60;57.40;;;;;;4995997;28;19914;-72
2023/07/17 15:51:00;;;;;;;;;;;28.60;57.20;;;;;;4996607;28;20314;-73
2023/07/17 15:53:25;;;;;;;;;;;28.50;57.00;;;;;;4997834;28;20270;-75
2023/07/17 15:55:51;;;;;;;;;;;28.40;57.40;;;;;;4999123;28;19914;-72
2023/07/17 15:58:17;;;;;;;;;;;28.50;57.60;;;;;;4997106;28;19910;-72
2023/07/17 16:00:43;;;;;;;;;;;28.60;57.80;;;;;;4999860;28;20468;-73
2023/07/17 16:03:08;;;;;;;;;;;28.50;57.60;;;;;;4999339;28;19910;-73
2023/07/17 16:05:34;;;;;;;;;;;28.70;57.50;;;;;;4998698;28;19920;-71
2023/07/17 16:07:59;;;;;;;;;;;28.60;57.20;;;;;;4999082;28;19910;-73
2023/07/17 16:10:27;;;;;;;;;;;28.50;57.30;;;;;;4994855;28;19914;-73
2023/07/17 16:12:53;;;;;;;;;;;28.40;57.80;;;;;;4995969;28;19997;-73
2023/07/17 16:15:19;;;;;;;;;;;28.30;57.50;;;;;;4995675;28;20338;-73
2023/07/17 16:17:44;;;;;;;;;;;28.20;57.40;;;;;;4995472;28;19932;-70
2023/07/17 16:20:10;;;;;;;;;;;28.10;58.30;;;;;;4994655;28;19963;-72
2023/07/17 16:22:35;;;;;;;;;;;28.10;57.80;;;;;;4994104;28;20005;-72
2023/07/17 16:25:01;;;;;;;;;;;28.10;58.30;;;;;;4996555;28;20303;-73
2023/07/17 16:27:27;;;;;;;;;;;28.10;58.30;;;;;;4994989;28;19910;-73
2023/07/17 16:29:55;;;;;;;;;;;28.20;57.80;;;;;;4995031;28;20120;-74
2023/07/17 16:32:21;;;;;;;;;;;28.20;57.40;;;;;;4988164;28;19910;-74
2023/07/17 16:34:46;;;;;;;;;;;28.20;58.10;;;;;;4977388;28;19910;-73
2023/07/17 16:37:12;;;;;;;;;;;28.00;57.60;;;;;;4991472;28;19981;-73
2023/07/17 16:39:38;;;;;;;;;;;27.90;57.90;;;;;;4974546;28;20360;-73
2023/07/17 16:42:04;;;;;;;;;;;27.80;57.90;;;;;;4975168;28;20002;-75
2023/07/17 16:44:29;;;;;;;;;;;27.80;57.80;;;;;;4976055;28;19914;-74
2023/07/17 16:46:55;;;;;;;;;;;27.80;57.30;;;;;;4974358;28;19978;-75
2023/07/17 16:49:20;;;;;;;;;;;27.70;57.40;;;;;;4983400;28;19925;-76
2023/07/17 16:51:46;;;;;;;;;;;27.60;57.90;;;;;;4995407;28;20367;-76
2023/07/17 16:54:11;;;;;;;;;;;27.60;58.10;;;;;;4991241;28;19984;-74
2023/07/17 16:56:37;;;;;;;;;;;27.60;58.40;;;;;;4993454;28;19910;-75
2023/07/17 16:59:03;;;;;;;;;;;27.50;58.70;;;;;;4993353;28;19913;-74
2023/07/17 17:01:29;;;;;;;;;;;27.50;58.80;;;;;;4994072;28;19918;-75
2023/07/17 17:03:55;;;;;;;;;;;27.60;58.40;;;;;;4995206;28;20281;-75
2023/07/17 17:06:20;;;;;;;;;;;27.60;57.80;;;;;;4992926;28;19910;-75
2023/07/17 17:08:46;;;;;;;;;;;27.60;57.90;;;;;;4993025;28;20358;-75
2023/07/17 17:11:11;;;;;;;;;;;27.60;58.00;;;;;;4994670;28;20016;-74
2023/07/17 17:13:37;;;;;;;;;;;27.50;57.70;;;;;;4994631;28;19910;-74
2023/07/17 17:16:03;;;;;;;;;;;27.40;57.90;;;;;;4994670;28;20424;-75
2023/07/17 17:18:29;;;;;;;;;;;27.40;57.90;;;;;;4995005;28;19960;-76
2023/07/17 17:20:55;;;;;;;;;;;27.30;58.00;;;;;;4984971;28;19914;-76
2023/07/17 17:23:20;;;;;;;;;;;27.30;57.70;;;;;;4993045;28;19917;-74
2023/07/17 17:25:46;;;;;;;;;;;27.30;58.10;;;;;;4990567;28;19910;-74
2023/07/17 17:28:11;;;;;;;;;;;27.20;58.30;;;;;;4984668;28;19965;-73
2023/07/17 17:30:37;;;;;;;;;;;27.20;58.40;;;;;;4994200;28;20004;-72
2023/07/17 17:33:02;;;;;;;;;;;27.20;58.60;;;;;;4992260;28;20286;-73
2023/07/17 17:35:28;;;;;;;;;;;27.10;58.70;;;;;;4989101;28;20012;-73
2023/07/17 17:37:53;;;;;;;;;;;27.00;58.70;;;;;;4999005;28;19956;-73
2023/07/17 17:40:19;;;;;;;;;;;26.90;58.80;;;;;;4999397;28;19956;-73
2023/07/17 17:42:44;;;;;;;;;;;27.00;58.90;;;;;;4996118;28;19910;-73
2023/07/17 17:45:12;;;;;;;;;;;27.00;59.10;;;;;;4997337;28;19910;-73
2023/07/17 17:47:38;;;;;;;;;;;27.00;58.90;;;;;;4996024;28;19910;-73
2023/07/17 17:50:04;;;;;;;;;;;27.00;58.60;;;;;;4995623;28;20012;-75
2023/07/17 17:52:30;;;;;;;;;;;26.90;59.10;;;;;;4995886;28;20000;-71
2023/07/17 17:54:55;;;;;;;;;;;26.80;59.00;;;;;;4995882;28;20385;-72
2023/07/17 17:57:21;;;;;;;;;;;26.60;59.40;;;;;;4997051;28;19910;-72
2023/07/17 17:59:47;;;;;;;;;;;26.60;59.30;;;;;;4996911;28;19909;-73
2023/07/17 18:02:12;;;;;;;;;;;26.60;59.50;;;;;;4996798;28;19922;-73
2023/07/17 18:04:37;;;;;;;;;;;26.60;59.80;;;;;;4995877;28;20385;-74
2023/07/17 18:07:03;;;;;;;;;;;26.60;59.80;;;;;;4997195;28;19921;-74
2023/07/17 18:09:29;;;;;;;;;;;26.60;60.00;;;;;;4996474;28;19913;-72
2023/07/17 18:11:54;;;;;;;;;;;26.50;60.00;;;;;;4997433;28;19914;-73